Time;durP1;ratioP1;P1;durP2;ratioP2;P2;SDS_P1;SDS_P2;PMS_P1;PMS_P2;Temp;Humidity;BMP_temperature;BMP_pressure;BME280_temperature;BME280_humidity;BME280_pressure;Samples;Min_cycle;Max_cycle;Signal;HPM_P1;HPM_P2
2021/06/29 00:01:11;;;;;;;6.72;4.13;;;;;;;17.73;98.59;98780.50;5102368;28;20052;-83
2021/06/29 00:03:38;;;;;;;6.28;3.85;;;;;;;17.72;97.75;98756.88;5090909;28;20059;-84
2021/06/29 00:06:07;;;;;;;5.93;3.03;;;;;;;17.58;98.30;98761.75;5109643;28;20039;-83
2021/06/29 00:08:33;;;;;;;12.35;3.30;;;;;;;17.41;99.00;98750.69;5112123;28;20046;-83
2021/06/29 00:11:01;;;;;;;6.75;3.10;;;;;;;17.42;99.88;98776.22;5114914;28;20055;-83
2021/06/29 00:13:27;;;;;;;3.42;2.67;;;;;;;17.49;99.35;98783.31;5110922;28;20501;-84
2021/06/29 00:15:54;;;;;;;6.70;2.85;;;;;;;17.48;99.66;98789.88;5109147;28;20058;-84
2021/06/29 00:18:21;;;;;;;12.52;3.35;;;;;;;17.38;99.28;98764.91;5111677;28;20048;-84
2021/06/29 00:20:49;;;;;;;5.95;2.88;;;;;;;17.46;100.00;98780.19;5101668;28;20105;-83
2021/06/29 00:23:17;;;;;;;5.30;3.28;;;;;;;17.44;99.80;98774.09;5094176;28;20044;-84
2021/06/29 00:25:44;;;;;;;29.77;4.90;;;;;;;17.33;100.00;98784.03;5102935;28;20135;-84
2021/06/29 00:28:11;;;;;;;7.75;3.45;;;;;;;17.54;100.00;98792.72;5113954;28;20528;-84
2021/06/29 00:30:38;;;;;;;8.00;3.75;;;;;;;17.59;100.00;98790.09;5112721;28;20066;-84
2021/06/29 00:33:05;;;;;;;7.82;3.38;;;;;;;17.56;100.00;98794.16;5107052;28;20051;-85
2021/06/29 00:35:32;;;;;;;7.30;4.45;;;;;;;17.54;100.00;98790.81;5099923;28;20537;-85
2021/06/29 00:37:58;;;;;;;9.90;4.20;;;;;;;17.54;100.00;98814.72;5095371;28;20048;-84
2021/06/29 00:40:29;;;;;;;6.85;3.80;;;;;;;17.48;100.00;98842.06;5113631;28;20498;-84
2021/06/29 00:42:56;;;;;;;3.53;3.13;;;;;;;17.44;100.00;98831.81;5104938;28;20044;-84
2021/06/29 00:45:23;;;;;;;4.38;3.40;;;;;;;17.45;100.00;98838.97;5109646;28;20404;-84
2021/06/29 00:47:49;;;;;;;7.95;3.80;;;;;;;17.39;100.00;98821.53;5099868;28;20467;-84
2021/06/29 00:50:16;;;;;;;6.75;3.60;;;;;;;17.46;100.00;98810.41;5110603;28;20055;-84
2021/06/29 00:52:43;;;;;;;5.18;3.50;;;;;;;17.55;100.00;98811.72;5093351;28;20131;-84
2021/06/29 00:55:13;;;;;;;8.93;3.90;;;;;;;17.55;100.00;98822.72;5108077;28;20108;-84
2021/06/29 00:57:43;;;;;;;;;;;;;;;17.52;100.00;98825.94;5112344;28;20056;-84
2021/06/29 01:00:11;;;;;;;;;;;;;;;17.57;100.00;98834.31;5109882;28;19920;-84
2021/06/29 01:02:38;;;;;;;7.57;4.25;;;;;;;17.49;100.00;98815.41;5093493;28;19927;-84
2021/06/29 01:05:06;;;;;;;10.00;5.28;;;;;;;17.44;100.00;98807.06;5095811;28;20094;-84
2021/06/29 01:07:33;;;;;;;5.82;4.47;;;;;;;17.40;100.00;98805.88;5092813;28;20044;-83
2021/06/29 01:10:00;;;;;;;8.90;5.50;;;;;;;17.44;100.00;98804.31;5094731;28;20058;-84
2021/06/29 01:12:27;;;;;;;13.43;5.25;;;;;;;17.59;100.00;98826.66;5111091;28;20052;-84
2021/06/29 01:14:55;;;;;;;11.07;5.07;;;;;;;17.50;100.00;98798.69;5095378;28;20138;-83
2021/06/29 01:17:24;;;;;;;15.27;5.10;;;;;;;17.62;100.00;98800.63;5107398;28;20054;-83
2021/06/29 01:19:52;;;;;;;6.20;4.60;;;;;;;17.60;100.00;98787.13;5104897;28;20142;-84
2021/06/29 01:22:22;;;;;;;7.47;4.53;;;;;;;17.54;100.00;98789.97;5099669;28;20351;-84
2021/06/29 01:24:51;;;;;;;8.60;5.20;;;;;;;17.56;100.00;98774.09;5080604;28;20114;-84
2021/06/29 01:27:32;;;;;;;7.47;4.07;;;;;;;17.55;100.00;98761.41;5083963;28;20039;-83
2021/06/29 01:32:47;;;;;;;8.40;4.03;;;;;;;17.47;100.00;98757.97;5093290;28;20078;-84
2021/06/29 01:35:14;;;;;;;5.57;3.83;;;;;;;17.42;100.00;98759.75;5111185;28;20044;-84
2021/06/29 01:37:42;;;;;;;6.63;3.88;;;;;;;17.41;100.00;98758.09;5110466;28;20059;-83
2021/06/29 01:40:12;;;;;;;5.80;4.13;;;;;;;17.45;100.00;98751.88;5094146;28;20052;-84
2021/06/29 01:42:40;;;;;;;6.35;3.80;;;;;;;17.42;100.00;98749.59;5092372;28;20131;-84
2021/06/29 01:45:07;;;;;;;6.10;4.18;;;;;;;17.41;100.00;98763.59;5100150;28;20172;-84
2021/06/29 01:47:51;;;;;;;8.57;3.70;;;;;;;17.29;100.00;98749.84;5105505;28;20098;-84
2021/06/29 01:50:21;;;;;;;7.57;4.78;;;;;;;17.25;100.00;98748.66;5108605;28;20047;-84
2021/06/29 01:52:56;;;;;;;4.53;3.42;;;;;;;17.24;100.00;98742.31;5112811;28;20390;-84
2021/06/29 01:55:23;;;;;;;4.82;3.55;;;;;;;17.31;100.00;98753.19;5092842;28;20067;-84
2021/06/29 01:57:51;;;;;;;5.22;3.85;;;;;;;17.21;100.00;98728.22;5094008;28;20059;-84
2021/06/29 02:00:18;;;;;;;3.90;3.25;;;;;;;17.16;100.00;98712.44;5106601;28;20300;-84
2021/06/29 02:02:47;;;;;;;8.85;3.75;;;;;;;17.19;100.00;98738.63;5101081;28;20051;-84
2021/06/29 02:05:14;;;;;;;6.78;3.92;;;;;;;17.09;100.00;98720.81;5092203;28;20507;-84
2021/06/29 02:07:40;;;;;;;8.38;3.80;;;;;;;17.08;100.00;98729.31;5094351;28;20044;-84
2021/06/29 02:10:14;;;;;;;4.10;3.70;;;;;;;17.02;100.00;98722.84;5094445;28;20511;-83
2021/06/29 02:12:41;;;;;;;5.10;3.30;;;;;;;17.00;100.00;98744.22;5087046;28;20392;-83
2021/06/29 02:15:08;;;;;;;5.85;3.28;;;;;;;17.05;100.00;98785.53;5095492;28;20538;-84
2021/06/29 02:17:35;;;;;;;3.97;3.55;;;;;;;17.02;100.00;98805.22;5102283;28;20051;-84
2021/06/29 02:20:03;;;;;;;8.45;3.47;;;;;;;17.06;100.00;98841.31;5102987;28;20449;-83
2021/06/29 02:22:30;;;;;;;4.90;3.83;;;;;;;17.11;100.00;98857.91;5092092;28;20427;-83
2021/06/29 02:24:57;;;;;;;7.82;3.35;;;;;;;17.10;100.00;98876.31;5104957;28;20067;-83
2021/06/29 02:27:28;;;;;;;13.48;3.83;;;;;;;16.88;100.00;98865.00;5109407;28;20044;-84
2021/06/29 02:29:56;;;;;;;6.15;3.80;;;;;;;16.95;100.00;98889.59;5102020;28;20487;-84
2021/06/29 02:32:23;;;;;;;14.88;5.60;;;;;;;17.02;100.00;98887.59;5111096;28;20043;-84
2021/06/29 02:34:50;;;;;;;5.28;4.45;;;;;;;17.08;100.00;98894.06;5110883;28;20048;-85
2021/06/29 02:37:17;;;;;;;5.25;3.45;;;;;;;17.21;100.00;98895.78;5104329;28;20048;-85
2021/06/29 02:39:44;;;;;;;4.85;4.40;;;;;;;17.21;100.00;98877.41;5106926;28;20424;-85
2021/06/29 02:42:11;;;;;;;4.82;4.03;;;;;;;17.21;100.00;98873.78;5095658;28;20052;-86
2021/06/29 02:44:41;;;;;;;8.05;3.75;;;;;;;17.30;100.00;98875.97;5105315;28;20052;-86
2021/06/29 02:47:08;;;;;;;4.65;3.97;;;;;;;17.38;100.00;98883.03;5109518;28;20047;-85
2021/06/29 02:49:36;;;;;;;6.80;3.65;;;;;;;17.31;100.00;98882.31;5092292;28;20048;-85
2021/06/29 02:52:04;;;;;;;8.38;3.78;;;;;;;17.28;100.00;98866.28;5103327;28;20051;-85
2021/06/29 02:54:31;;;;;;;8.18;3.20;;;;;;;17.29;100.00;98844.06;5109737;28;20048;-85
2021/06/29 02:56:58;;;;;;;4.40;3.72;;;;;;;17.22;100.00;98843.34;5100250;28;20051;-85
2021/06/29 02:59:25;;;;;;;3.45;3.03;;;;;;;17.21;100.00;98844.44;5096323;28;20309;-85
2021/06/29 03:01:53;;;;;;;5.03;3.30;;;;;;;17.39;100.00;98850.91;5090080;28;20047;-85
2021/06/29 03:04:20;;;;;;;6.40;3.38;;;;;;;17.27;100.00;98829.75;5102735;28;20454;-85
2021/06/29 03:06:47;;;;;;;5.78;3.40;;;;;;;17.30;100.00;98848.50;5095740;28;20044;-84
2021/06/29 03:09:14;;;;;;;3.58;3.22;;;;;;;17.29;100.00;98868.81;5100544;28;20048;-84
2021/06/29 03:11:41;;;;;;;11.80;3.08;;;;;;;17.34;100.00;98862.59;5111651;28;20043;-84
2021/06/29 03:14:08;;;;;;;6.45;3.38;;;;;;;17.28;100.00;98847.91;5108412;28;20044;-85
2021/06/29 03:16:35;;;;;;;4.50;3.38;;;;;;;17.30;100.00;98854.00;5106087;28;20142;-83
2021/06/29 03:19:04;;;;;;;4.22;3.33;;;;;;;17.24;100.00;98854.94;5102125;28;20054;-84
2021/06/29 03:21:30;;;;;;;5.07;3.45;;;;;;;17.28;100.00;98850.66;5096319;28;20089;-84
2021/06/29 03:23:57;;;;;;;6.90;3.05;;;;;;;17.18;100.00;98831.19;5095662;28;20044;-84
2021/06/29 03:26:24;;;;;;;8.73;3.20;;;;;;;17.24;100.00;98851.38;5095342;28;20039;-84
2021/06/29 03:28:51;;;;;;;4.15;2.78;;;;;;;17.22;100.00;98835.09;5103788;28;20586;-84
2021/06/29 03:31:21;;;;;;;4.20;3.22;;;;;;;17.29;100.00;98826.78;5099044;28;20047;-84
2021/06/29 03:33:51;;;;;;;5.53;2.97;;;;;;;17.31;100.00;98830.09;5111978;28;20376;-85
2021/06/29 03:36:19;;;;;;;3.97;3.03;;;;;;;17.34;100.00;98824.13;5115230;28;20052;-84
2021/06/29 03:38:50;;;;;;;3.97;3.10;;;;;;;17.25;100.00;98809.94;5113054;28;20411;-86
2021/06/29 03:41:17;;;;;;;4.95;3.10;;;;;;;17.17;100.00;98800.09;5096830;28;20066;-85
2021/06/29 03:43:44;;;;;;;5.70;3.00;;;;;;;17.33;100.00;98811.50;5095329;28;20048;-84
2021/06/29 03:46:11;;;;;;;4.70;2.90;;;;;;;17.12;100.00;98772.53;5107835;28;20104;-84
2021/06/29 03:48:38;;;;;;;5.05;2.90;;;;;;;17.13;100.00;98779.69;5115248;28;20209;-83
2021/06/29 03:51:05;;;;;;;3.40;3.10;;;;;;;17.19;100.00;98774.31;5102392;28;20391;-83
2021/06/29 03:53:34;;;;;;;5.15;3.33;;;;;;;17.10;100.00;98760.09;5102182;28;20062;-84
2021/06/29 03:56:01;;;;;;;4.28;2.95;;;;;;;16.92;100.00;98761.88;5112578;28;20048;-84
2021/06/29 03:58:27;;;;;;;4.50;3.40;;;;;;;16.84;100.00;98740.22;5113661;28;20055;-84
2021/06/29 04:00:54;;;;;;;3.75;3.15;;;;;;;17.05;100.00;98758.06;5114197;28;20491;-84
2021/06/29 04:03:21;;;;;;;7.18;3.05;;;;;;;17.06;100.00;98758.94;5102003;28;20403;-84
2021/06/29 04:05:48;;;;;;;5.55;3.25;;;;;;;17.07;100.00;98782.53;5092504;28;20050;-84
2021/06/29 04:08:15;;;;;;;10.98;3.50;;;;;;;17.25;100.00;98773.38;5091896;28;20052;-84
2021/06/29 04:10:43;;;;;;;8.43;3.45;;;;;;;17.12;100.00;98771.69;5097890;28;20044;-84
2021/06/29 04:13:10;;;;;;;7.35;2.92;;;;;;;17.05;100.00;98793.75;5107774;28;20204;-84
2021/06/29 04:15:40;;;;;;;6.85;2.70;;;;;;;17.27;100.00;98787.72;5113468;28;20048;-84
2021/06/29 04:18:18;;;;;;;4.97;2.75;;;;;;;17.09;100.00;98753.78;5110112;28;20075;-84
2021/06/29 04:20:44;;;;;;;6.10;2.75;;;;;;;17.11;100.00;98759.84;5094293;28;20048;-81
2021/06/29 04:23:11;;;;;;;4.97;3.38;;;;;;;17.17;100.00;98774.56;5096110;28;20066;-84
2021/06/29 04:25:40;;;;;;;6.10;2.75;;;;;;;17.20;100.00;98771.34;5078451;28;20044;-84
2021/06/29 04:28:11;;;;;;;5.18;3.33;;;;;;;17.29;100.00;98760.84;5114590;28;20131;-84
2021/06/29 04:30:38;;;;;;;2.83;2.53;;;;;;;17.25;100.00;98743.16;5096326;28;20105;-84
2021/06/29 04:33:08;;;;;;;6.22;2.70;;;;;;;17.19;100.00;98750.44;5093949;28;20059;-84
2021/06/29 04:35:35;;;;;;;3.03;2.70;;;;;;;17.25;100.00;98749.50;5094218;28;20204;-83
2021/06/29 04:38:02;;;;;;;7.85;3.13;;;;;;;17.29;100.00;98738.84;5101863;28;20052;-85
2021/06/29 04:40:29;;;;;;;5.35;2.80;;;;;;;17.21;100.00;98711.72;5089058;28;20067;-84
2021/06/29 04:42:56;;;;;;;4.32;3.13;;;;;;;17.30;100.00;98718.56;5105006;28;20482;-84
2021/06/29 04:45:27;;;;;;;10.90;2.60;;;;;;;17.16;100.00;98685.84;5111975;28;20047;-85
2021/06/29 04:47:55;;;;;;;3.28;2.28;;;;;;;17.08;100.00;98664.22;5101180;28;20064;-85
2021/06/29 04:50:22;;;;;;;2.83;2.47;;;;;;;17.02;100.00;98650.63;5105507;28;20050;-84
2021/06/29 04:52:50;;;;;;;3.25;2.80;;;;;;;17.06;100.00;98640.84;5111556;28;20114;-84
2021/06/29 04:55:18;;;;;;;2.60;2.15;;;;;;;16.92;100.00;98630.09;5110145;28;20044;-85
2021/06/29 04:57:45;;;;;;;3.92;2.80;;;;;;;16.84;100.00;98655.13;5112819;28;20051;-85
2021/06/29 05:00:14;;;;;;;5.60;3.25;;;;;;;16.79;100.00;98660.50;5097960;28;20044;-84
2021/06/29 05:02:44;;;;;;;3.83;3.38;;;;;;;16.73;100.00;98681.50;5095545;28;20461;-83
2021/06/29 05:05:12;;;;;;;6.03;3.30;;;;;;;16.85;100.00;98711.69;5093519;28;20466;-84
2021/06/29 05:07:39;;;;;;;4.45;3.20;;;;;;;17.03;100.00;98727.28;5104285;28;20051;-83
2021/06/29 05:10:08;;;;;;;5.53;3.15;;;;;;;17.10;100.00;98746.38;5097804;28;20051;-84
2021/06/29 05:12:35;;;;;;;5.40;3.17;;;;;;;17.07;100.00;98742.22;5097320;28;20056;-83
2021/06/29 05:15:02;;;;;;;8.35;4.43;;;;;;;17.17;100.00;98714.97;5079967;28;20057;-83
2021/06/29 05:17:29;;;;;;;9.73;3.63;;;;;;;17.14;100.00;98734.66;5090395;28;20047;-84
2021/06/29 05:19:57;;;;;;;6.95;3.28;;;;;;;16.93;100.00;98754.47;5107201;28;20464;-84
2021/06/29 05:22:24;;;;;;;4.38;3.40;;;;;;;16.98;100.00;98744.47;5092585;28;20503;-84
2021/06/29 05:24:51;;;;;;;10.75;3.65;;;;;;;17.25;100.00;98765.97;5107795;28;20055;-83
2021/06/29 05:27:18;;;;;;;5.53;3.15;;;;;;;17.34;100.00;98755.44;5112533;28;20046;-84
2021/06/29 05:29:47;;;;;;;4.35;3.00;;;;;;;17.38;100.00;98755.81;5102033;28;20043;-83
2021/06/29 05:32:14;;;;;;;4.85;3.10;;;;;;;17.49;100.00;98755.81;5101977;27;20047;-84
2021/06/29 05:34:41;;;;;;;5.03;3.40;;;;;;;17.35;100.00;98735.16;5104157;28;20097;-84
2021/06/29 05:37:10;;;;;;;4.82;2.53;;;;;;;17.56;100.00;98739.19;5092269;28;20083;-84
2021/06/29 05:39:36;;;;;;;5.47;3.90;;;;;;;17.60;100.00;98710.16;5109180;28;20043;-84
2021/06/29 05:42:03;;;;;;;8.82;3.45;;;;;;;17.36;100.00;98701.13;5098673;28;20407;-84
2021/06/29 05:44:30;;;;;;;4.90;4.50;;;;;;;17.18;100.00;98691.09;5093444;28;20056;-81
2021/06/29 05:46:57;;;;;;;4.28;3.63;;;;;;;17.31;100.00;98709.22;5092144;28;20076;-81
2021/06/29 05:49:24;;;;;;;7.13;3.90;;;;;;;17.29;100.00;98698.47;5087766;28;20140;-81
2021/06/29 05:51:51;;;;;;;6.32;3.80;;;;;;;17.31;100.00;98682.59;5094659;28;20366;-80
2021/06/29 05:57:02;;;;;;;7.25;3.60;;;;;;;17.03;100.00;98668.78;5089907;28;20073;-80
2021/06/29 05:59:28;;;;;;;4.07;3.63;;;;;;;17.25;100.00;98683.56;5109796;28;20407;-81
2021/06/29 06:01:58;;;;;;;10.35;4.70;;;;;;;17.36;100.00;98672.78;5105735;28;20051;-80
2021/06/29 06:04:28;;;;;;;3.22;2.92;;;;;;;17.43;100.00;98668.84;5092230;28;20116;-81
2021/06/29 06:06:54;;;;;;;3.42;3.05;;;;;;;17.42;100.00;98660.81;5088077;28;20056;-81
2021/06/29 06:09:23;;;;;;;4.20;2.90;;;;;;;17.37;100.00;98663.47;5094986;28;20514;-81
2021/06/29 06:12:00;;;;;;;8.27;3.83;;;;;;;17.60;100.00;98701.91;5100614;28;20055;-81
2021/06/29 06:14:28;;;;;;;4.78;3.33;;;;;;;17.49;100.00;98713.75;5071312;28;20044;-81
2021/06/29 06:16:54;;;;;;;5.30;3.45;;;;;;;17.51;100.00;98717.09;5072421;28;20499;-81
2021/06/29 06:19:21;;;;;;;6.85;3.42;;;;;;;17.55;100.00;98714.69;5071694;28;20484;-80
2021/06/29 06:21:48;;;;;;;5.03;3.40;;;;;;;17.70;100.00;98704.03;5071927;28;20114;-81
2021/06/29 06:24:15;;;;;;;4.05;3.47;;;;;;;17.77;100.00;98712.16;5085039;28;20238;-81
2021/06/29 06:26:48;;;;;;;7.95;3.58;;;;;;;17.98;100.00;98721.69;5071966;28;20045;-80
2021/06/29 06:29:15;;;;;;;5.70;3.10;;;;;;;17.99;100.00;98718.69;5073860;28;20045;-81
2021/06/29 06:31:41;;;;;;;7.55;3.03;;;;;;;18.12;100.00;98716.72;5072010;28;20059;-81
2021/06/29 06:34:08;;;;;;;8.20;3.38;;;;;;;18.29;100.00;98714.88;5088827;28;20131;-81
2021/06/29 06:36:48;;;;;;;3.60;2.88;;;;;;;18.38;100.00;98702.38;5091872;28;20552;-81
2021/06/29 06:39:26;;;;;;;5.22;3.38;;;;;;;18.47;99.96;98700.06;5089700;28;20135;-81
2021/06/29 06:41:57;;;;;;;21.85;5.13;;;;;;;18.61;98.39;98681.31;5079022;28;20093;-81
2021/06/29 06:47:01;;;;;;;6.65;3.20;;;;;;;18.79;95.34;98657.34;5073621;28;20076;-81
2021/06/29 06:49:28;;;;;;;3.50;3.20;;;;;;;18.99;95.28;98652.19;5071203;28;20063;-81
2021/06/29 06:51:54;;;;;;;4.47;3.05;;;;;;;19.28;93.80;98669.44;5080252;28;20144;-81
2021/06/29 06:54:21;;;;;;;3.83;3.10;;;;;;;19.34;93.82;98655.72;5071372;28;20114;-81
2021/06/29 06:56:48;;;;;;;6.25;3.40;;;;;;;19.49;91.58;98666.94;5083043;28;20446;-80
2021/06/29 06:59:16;;;;;;;6.35;3.22;;;;;;;19.86;91.03;98668.25;5071511;28;20056;-81
2021/06/29 07:01:46;;;;;;;7.50;3.08;;;;;;;19.94;91.16;98671.38;5087605;28;20044;-80
2021/06/29 07:04:15;;;;;;;6.30;3.17;;;;;;;20.01;90.33;98678.63;5076739;28;20056;-80
2021/06/29 07:06:41;;;;;;;3.03;2.50;;;;;;;20.01;91.11;98681.38;5087487;28;20084;-80
2021/06/29 07:09:08;;;;;;;6.03;3.00;;;;;;;20.41;88.90;98671.88;5097401;28;20039;-81
2021/06/29 07:11:35;;;;;;;6.80;2.60;;;;;;;20.63;85.19;98666.28;5100732;28;20052;-80
2021/06/29 07:14:02;;;;;;;3.90;2.38;;;;;;;20.76;81.47;98665.03;5089030;28;20053;-80
2021/06/29 07:16:32;;;;;;;6.10;2.83;;;;;;;21.46;85.36;98664.97;5095495;28;20102;-80
2021/06/29 07:18:59;;;;;;;4.78;2.03;;;;;;;22.03;78.98;98647.50;5101466;28;20051;-79
2021/06/29 07:21:27;;;;;;;6.75;2.05;;;;;;;22.66;76.45;98653.97;5091413;28;20044;-79
2021/06/29 07:23:54;;;;;;;4.95;2.20;;;;;;;23.33;74.90;98660.31;5092299;28;20082;-79
2021/06/29 07:26:21;;;;;;;3.08;1.88;;;;;;;23.46;71.83;98637.53;5105661;28;20460;-79
2021/06/29 07:28:48;;;;;;;4.97;1.95;;;;;;;23.80;72.78;98647.09;5113406;28;20054;-79
2021/06/29 07:31:17;;;;;;;4.03;1.67;;;;;;;23.84;69.47;98642.66;5113325;28;20059;-79
2021/06/29 07:33:49;;;;;;;2.72;1.58;;;;;;;24.19;73.46;98654.69;5112584;28;20096;-79
2021/06/29 07:36:18;;;;;;;1.65;1.20;;;;;;;24.23;65.93;98636.34;5109477;28;20051;-79
2021/06/29 07:38:45;;;;;;;7.90;1.77;;;;;;;24.24;70.19;98645.50;5091907;28;20048;-78
2021/06/29 07:41:13;;;;;;;3.75;1.40;;;;;;;24.22;67.09;98656.91;5091375;28;20502;-79
2021/06/29 07:43:40;;;;;;;3.45;1.30;;;;;;;24.19;64.45;98651.91;5107742;28;20055;-79
2021/06/29 07:46:07;;;;;;;1.77;1.20;;;;;;;24.19;64.40;98638.03;5098863;28;20044;-79
2021/06/29 07:48:34;;;;;;;5.50;1.60;;;;;;;24.61;66.23;98622.75;5095398;28;20044;-78
2021/06/29 07:51:03;;;;;;;2.60;1.38;;;;;;;24.88;63.54;98650.03;5114956;28;20044;-78
2021/06/29 07:53:30;;;;;;;1.80;1.60;;;;;;;24.83;64.60;98635.38;5105716;28;20052;-78
2021/06/29 07:55:57;;;;;;;2.30;1.08;;;;;;;24.84;63.35;98631.44;5094352;28;20051;-78
2021/06/29 07:58:24;;;;;;;0.98;0.93;;;;;;;24.89;61.50;98632.25;5098693;28;20043;-78
2021/06/29 08:00:51;;;;;;;4.22;1.17;;;;;;;24.57;63.97;98630.00;5114484;28;20050;-78
2021/06/29 08:03:17;;;;;;;2.85;1.30;;;;;;;24.82;63.30;98617.84;5104782;28;20095;-79
2021/06/29 08:05:44;;;;;;;3.55;1.20;;;;;;;24.57;62.75;98624.44;5073955;28;20049;-79
2021/06/29 08:08:12;;;;;;;2.67;1.17;;;;;;;24.97;62.92;98630.78;5074091;28;20510;-79
2021/06/29 08:10:39;;;;;;;1.17;0.93;;;;;;;24.20;59.62;98623.84;5104073;28;20055;-80
2021/06/29 08:13:07;;;;;;;3.30;1.38;;;;;;;23.75;59.04;98608.28;5114729;28;20107;-79
2021/06/29 08:15:35;;;;;;;1.70;1.02;;;;;;;24.11;56.84;98620.03;5113056;28;20075;-80
2021/06/29 08:18:03;;;;;;;4.47;1.13;;;;;;;24.52;57.53;98619.75;5114575;28;20051;-80
2021/06/29 08:20:30;;;;;;;2.63;1.00;;;;;;;24.66;56.01;98621.88;5103084;28;20052;-80
2021/06/29 08:22:57;;;;;;;1.52;1.23;;;;;;;25.21;58.88;98621.63;5094070;28;20484;-80
2021/06/29 08:25:28;;;;;;;2.03;1.20;;;;;;;24.77;60.31;98614.31;5100864;28;20052;-80
2021/06/29 08:27:55;;;;;;;2.95;0.82;;;;;;;24.75;60.07;98622.94;5113918;28;20051;-81
2021/06/29 08:30:22;;;;;;;2.95;1.60;;;;;;;25.27;62.33;98610.16;5108869;28;20071;-81
2021/06/29 08:32:49;;;;;;;3.35;1.27;;;;;;;25.40;56.89;98600.31;5094023;28;20048;-81
2021/06/29 08:35:16;;;;;;;3.88;1.40;;;;;;;25.50;58.39;98607.69;5096575;28;20100;-81
2021/06/29 08:37:44;;;;;;;1.60;1.17;;;;;;;24.94;57.79;98595.22;5089507;28;20044;-81
2021/06/29 08:40:14;;;;;;;4.68;1.27;;;;;;;24.50;58.16;98618.38;5073406;28;20125;-81
2021/06/29 08:42:42;;;;;;;2.00;1.05;;;;;;;24.51;65.40;98598.66;5107271;28;20105;-81
2021/06/29 08:45:13;;;;;;;3.80;1.10;;;;;;;24.19;62.99;98613.03;5113625;28;20250;-81
2021/06/29 08:47:40;;;;;;;4.43;1.45;;;;;;;24.53;61.92;98595.56;5103111;28;20048;-82
2021/06/29 08:50:09;;;;;;;3.20;1.27;;;;;;;24.89;59.83;98589.72;5093644;28;20061;-81
2021/06/29 08:52:36;;;;;;;2.05;1.55;;;;;;;24.90;58.64;98596.91;5097576;28;20415;-81
2021/06/29 08:55:08;;;;;;;4.22;1.50;;;;;;;25.26;60.61;98586.25;5094761;28;20059;-82
2021/06/29 08:57:35;;;;;;;1.42;1.33;;;;;;;25.48;57.87;98600.78;5093492;28;20048;-81
2021/06/29 09:00:07;;;;;;;4.43;1.50;;;;;;;25.73;52.33;98588.47;5093317;28;20318;-82
2021/06/29 09:02:38;;;;;;;1.38;1.10;;;;;;;25.35;56.54;98575.34;5093354;28;20499;-81
2021/06/29 09:05:21;;;;;;;5.00;1.65;;;;;;;25.50;60.56;98571.50;5093631;28;20070;-82
2021/06/29 09:07:49;;;;;;;2.67;1.60;;;;;;;25.58;61.42;98570.06;5093486;28;20260;-81
2021/06/29 09:10:16;;;;;;;5.05;1.50;;;;;;;25.67;58.27;98559.91;5092966;28;20182;-81
2021/06/29 09:12:50;;;;;;;1.77;1.20;;;;;;;25.83;57.03;98535.44;5093312;28;20068;-81
2021/06/29 09:15:39;;;;;;;6.43;1.80;;;;;;;25.85;52.87;98536.00;5092283;28;20067;-81
2021/06/29 09:18:24;;;;;;;3.25;1.33;;;;;;;25.85;56.41;98541.56;5080113;28;20048;-81
2021/06/29 09:20:55;;;;;;;1.40;1.30;;;;;;;26.06;56.11;98550.47;5093232;28;20112;-81
2021/06/29 09:23:24;;;;;;;1.33;1.08;;;;;;;25.49;54.54;98541.22;5072536;28;20052;-81
2021/06/29 09:25:54;;;;;;;2.97;1.42;;;;;;;25.53;53.86;98533.94;5080832;28;20048;-80
2021/06/29 09:28:25;;;;;;;3.28;1.25;;;;;;;25.67;53.53;98537.63;5094483;28;20044;-81
2021/06/29 09:30:58;;;;;;;3.88;1.40;;;;;;;26.30;52.12;98543.94;5093126;28;20052;-81
2021/06/29 09:33:26;;;;;;;2.60;1.63;;;;;;;26.96;52.27;98549.50;5101802;28;20044;-81
2021/06/29 09:35:58;;;;;;;1.55;1.10;;;;;;;26.93;51.62;98552.91;5112304;28;20127;-81
2021/06/29 09:38:28;;;;;;;5.03;1.00;;;;;;;26.42;52.25;98544.31;5111143;28;20044;-82
2021/06/29 09:40:57;;;;;;;2.97;1.40;;;;;;;25.89;52.30;98544.56;5113478;28;20403;-81
2021/06/29 09:43:26;;;;;;;4.20;1.70;;;;;;;25.79;55.01;98546.38;5106684;28;20044;-81
2021/06/29 09:46:02;;;;;;;1.85;1.33;;;;;;;26.19;54.46;98543.28;5100456;28;20048;-81
2021/06/29 09:48:32;;;;;;;1.60;1.48;;;;;;;26.25;52.86;98539.28;5092531;28;20127;-81
2021/06/29 09:51:02;;;;;;;4.45;1.65;;;;;;;26.05;55.98;98528.47;5092192;28;20072;-81
2021/06/29 09:53:32;;;;;;;1.45;1.35;;;;;;;26.30;50.25;98522.50;5092834;28;20109;-81
2021/06/29 09:56:05;;;;;;;3.45;1.30;;;;;;;26.39;49.79;98513.41;5093787;28;20139;-82
2021/06/29 09:58:33;;;;;;;3.55;1.17;;;;;;;25.55;51.83;98520.56;5091477;28;20073;-80
2021/06/29 10:01:03;;;;;;;2.60;1.45;;;;;;;24.91;52.89;98512.41;5105076;28;20140;-80
2021/06/29 10:03:36;;;;;;;1.48;1.20;;;;;;;24.60;57.58;98509.13;5112573;28;20139;-81
2021/06/29 10:06:11;;;;;;;1.50;1.40;;;;;;;24.85;58.04;98505.25;5108157;28;20055;-81
2021/06/29 10:08:39;;;;;;;3.15;1.38;;;;;;;24.77;55.76;98500.34;5107950;28;20040;-80
2021/06/29 10:11:11;;;;;;;3.10;1.35;;;;;;;24.96;53.53;98498.47;5095234;28;20085;-80
2021/06/29 10:13:41;;;;;;;1.75;1.25;;;;;;;24.98;52.62;98500.94;5112167;28;20456;-79
2021/06/29 10:16:11;;;;;;;4.40;1.30;;;;;;;24.80;52.35;98483.91;5101641;28;20087;-79
2021/06/29 10:18:40;;;;;;;2.80;1.48;;;;;;;24.70;54.58;98484.00;5092156;28;20093;-79
2021/06/29 10:24:03;;;;;;;3.78;3.35;;;;;;;25.02;57.21;98474.19;5072874;28;20145;-80
2021/06/29 10:26:32;;;;;;;3.10;1.20;;;;;;;25.18;54.63;98477.59;5074806;28;20049;-80
2021/06/29 10:29:02;;;;;;;2.90;1.63;;;;;;;25.58;55.19;98470.69;5112017;28;20040;-80
2021/06/29 10:31:35;;;;;;;1.98;1.48;;;;;;;25.97;52.87;98472.31;5112475;28;20047;-80
2021/06/29 10:34:11;;;;;;;2.20;1.27;;;;;;;26.37;51.11;98466.34;5109626;28;20084;-79
2021/06/29 10:36:40;;;;;;;2.03;1.13;;;;;;;26.36;49.40;98463.88;5100208;28;20105;-79
2021/06/29 10:39:11;;;;;;;3.05;1.23;;;;;;;26.30;48.53;98461.19;5085981;28;20056;-79
2021/06/29 10:41:43;;;;;;;4.53;0.98;;;;;;;25.83;49.48;98463.06;5071766;28;20119;-79
2021/06/29 10:44:11;;;;;;;3.50;1.27;;;;;;;26.17;51.04;98448.06;5097552;28;20108;-79
2021/06/29 10:46:42;;;;;;;2.05;1.33;;;;;;;26.04;48.79;98446.06;5111987;28;20478;-79
2021/06/29 10:49:38;;;;;;;1.55;1.15;;;;;;;25.69;49.64;98454.66;5109275;28;20043;-79
2021/06/29 10:52:09;;;;;;;1.23;1.13;;;;;;;25.41;52.21;98448.94;5113415;28;20640;-80
2021/06/29 10:54:46;;;;;;;2.10;1.23;;;;;;;25.93;52.09;98446.19;5108963;28;20048;-80
2021/06/29 10:57:16;;;;;;;6.22;1.45;;;;;;;26.45;50.11;98437.81;5112569;28;20047;-80
2021/06/29 10:59:46;;;;;;;3.25;1.33;;;;;;;26.61;49.87;98437.50;5109719;28;20048;-81
2021/06/29 11:02:27;;;;;;;2.25;1.40;;;;;;;26.53;48.53;98427.06;5073135;28;20048;-80
2021/06/29 11:04:58;;;;;;;3.85;1.65;;;;;;;26.78;47.80;98440.53;5111652;28;20521;-80
2021/06/29 11:07:45;;;;;;;5.03;1.17;;;;;;;26.93;48.14;98421.84;5096964;28;20117;-81
2021/06/29 11:10:15;;;;;;;2.20;1.20;;;;;;;27.09;47.88;98427.91;5091383;28;20051;-80
2021/06/29 11:12:50;;;;;;;3.55;1.40;;;;;;;27.45;47.46;98416.81;5091108;28;20051;-80
2021/06/29 11:15:18;;;;;;;1.30;1.20;;;;;;;27.38;46.12;98410.81;5071482;28;20057;-80
2021/06/29 11:18:00;;;;;;;2.08;1.10;;;;;;;27.71;49.62;98417.00;5096489;28;20137;-80
2021/06/29 11:20:37;;;;;;;2.60;1.10;;;;;;;28.13;49.92;98419.63;5101261;28;20055;-80
2021/06/29 11:23:05;;;;;;;1.38;0.90;;;;;;;28.02;44.92;98416.28;5100791;28;20131;-80
2021/06/29 11:25:44;;;;;;;6.18;1.20;;;;;;;28.34;43.07;98419.91;5115544;28;20051;-80
2021/06/29 11:28:26;;;;;;;1.10;1.00;;;;;;;28.54;44.63;98421.31;5093966;28;20040;-80
2021/06/29 11:31:02;;;;;;;1.95;1.00;;;;;;;28.53;43.90;98416.03;5073595;28;20078;-79
2021/06/29 11:33:46;;;;;;;1.48;0.90;;;;;;;28.57;42.97;98417.88;5076660;28;20052;-79
2021/06/29 11:36:48;;;;;;;2.42;1.10;;;;;;;28.43;42.39;98420.78;5085502;28;20380;-79
2021/06/29 11:39:34;;;;;;;1.63;0.98;;;;;;;28.04;43.42;98421.56;5095981;28;20048;-80
2021/06/29 11:42:06;;;;;;;0.80;0.80;;;;;;;28.12;41.65;98408.78;5094427;28;20052;-79
2021/06/29 11:44:47;;;;;;;2.80;0.90;;;;;;;28.92;41.60;98409.66;5096495;28;20093;-78
2021/06/29 11:47:22;;;;;;;3.28;0.90;;;;;;;28.59;43.51;98398.84;5093137;28;20055;-79
2021/06/29 11:49:53;;;;;;;1.83;1.08;;;;;;;27.76;43.50;98396.50;5095038;28;20127;-79